createdAt,value
2019-06-26T14:37:20.361Z,43.79
2019-06-26T14:38:20.331Z,43.19
2019-06-26T14:39:20.324Z,43.11
2019-06-26T14:40:20.487Z,43.30
2019-06-26T14:41:20.303Z,43.21
2019-06-26T14:42:20.326Z,42.63
2019-06-26T14:43:20.291Z,42.53
2019-06-26T14:44:20.282Z,43.11
2019-06-26T14:45:20.289Z,42.82
2019-06-26T14:46:20.265Z,42.53
2019-06-26T14:47:20.275Z,42.82
2019-06-26T14:48:20.256Z,42.53
2019-06-26T14:49:20.237Z,42.50
2019-06-26T14:50:20.230Z,42.41
2019-06-26T14:51:20.228Z,41.83
2019-06-26T14:52:20.218Z,41.73
2019-06-26T14:53:20.211Z,41.93
2019-06-26T14:54:20.191Z,41.53
2019-06-26T14:55:20.188Z,41.55
2019-06-26T14:56:20.189Z,41.36
2019-06-26T14:57:20.173Z,41.16
2019-06-26T14:58:20.172Z,41.06
2019-06-26T14:59:20.150Z,41.48
2019-06-26T15:00:20.134Z,41.67
2019-06-26T15:01:20.118Z,41.67
2019-06-26T15:02:20.108Z,41.77
2019-06-26T15:03:20.122Z,41.79
2019-06-26T15:04:20.110Z,41.60
2019-06-26T15:05:20.087Z,41.60
2019-06-26T15:06:20.100Z,42.38
2019-06-26T15:07:20.073Z,42.30
2019-06-26T15:08:20.069Z,42.69
2019-06-26T15:09:20.061Z,42.69
2019-06-26T15:10:20.075Z,42.40
2019-06-26T15:11:20.035Z,42.88
2019-06-26T15:12:20.022Z,42.79
2019-06-26T15:13:20.002Z,43.08
2019-06-26T15:14:20.026Z,42.96
2019-06-26T15:15:20.015Z,42.57
2019-06-26T15:16:19.997Z,42.57
2019-06-26T15:17:19.990Z,42.86
2019-06-26T15:18:19.965Z,43.57
2019-06-26T15:19:19.981Z,43.95
2019-06-26T15:20:19.986Z,44.44
2019-06-26T15:21:19.936Z,45.03
2019-06-26T15:22:19.939Z,45.42
2019-06-26T15:23:19.938Z,45.34
2019-06-26T15:24:19.920Z,45.64
2019-06-26T15:25:19.920Z,45.54
2019-06-26T15:26:19.923Z,45.54
2019-06-26T15:27:19.878Z,45.85
2019-06-26T15:28:19.858Z,46.04
2019-06-26T15:29:19.849Z,45.87
2019-06-26T15:30:19.858Z,46.36
2019-06-26T15:31:19.865Z,46.78
2019-06-26T15:32:19.830Z,47.27
2019-06-26T15:33:19.810Z,47.07
2019-06-26T15:34:19.826Z,46.58
2019-06-26T15:35:19.814Z,46.68
2019-06-26T15:36:19.803Z,47.09
2019-06-26T15:37:19.782Z,47.28
2019-06-26T15:38:19.799Z,47.50
2019-06-26T15:39:19.767Z,47.80
2019-06-26T15:40:19.765Z,47.80
2019-06-26T15:41:19.780Z,47.60
2019-06-26T15:42:19.743Z,47.80
2019-06-26T15:43:19.728Z,47.99
2019-06-26T15:44:19.716Z,47.89
2019-06-26T15:45:20.757Z,47.80
2019-06-26T15:46:19.695Z,47.70
2019-06-26T15:47:19.695Z,47.21
2019-06-26T15:48:19.665Z,47.31
2019-06-26T15:49:19.678Z,47.21
2019-06-26T15:50:19.654Z,46.65
2019-06-26T15:51:19.665Z,46.75
2019-06-26T15:52:19.647Z,46.97
2019-06-26T15:53:19.631Z,47.38
2019-06-26T15:54:19.656Z,47.77
2019-06-26T15:55:19.597Z,48.07
2019-06-26T15:56:19.603Z,48.26
2019-06-26T15:57:19.587Z,48.26
2019-06-26T15:58:19.591Z,47.87
2019-06-26T15:59:19.559Z,47.67
2019-06-26T16:00:19.562Z,47.89
2019-06-26T16:01:19.559Z,47.77
2019-06-26T16:02:19.530Z,47.38
2019-06-26T16:03:19.546Z,47.28
2019-06-26T16:04:19.510Z,47.28
2019-06-26T16:05:19.500Z,47.08
2019-06-26T16:06:19.482Z,46.91
2019-06-26T16:07:19.481Z,47.11
2019-06-26T16:08:19.481Z,47.52
2019-06-26T16:09:19.475Z,47.52
2019-06-26T16:10:19.462Z,47.52
2019-06-26T16:11:19.433Z,47.52
2019-06-26T16:12:19.433Z,47.33
2019-06-26T16:13:19.517Z,47.03
2019-06-26T16:14:19.426Z,47.16
2019-06-26T16:15:19.400Z,47.35
2019-06-26T16:16:19.433Z,47.77
2019-06-26T16:17:19.385Z,48.16
2019-06-26T16:18:19.416Z,48.18
2019-06-26T16:19:19.367Z,48.08
2019-06-26T16:20:19.346Z,47.89
2019-06-26T16:21:19.353Z,48.28
2019-06-26T16:22:31.639Z,48.60
2019-06-26T16:23:20.350Z,48.79
2019-06-26T16:24:19.413Z,48.79
2019-06-26T16:25:19.348Z,48.79
2019-06-26T16:26:19.300Z,48.99
2019-06-26T16:27:19.289Z,48.30
2019-06-26T16:28:19.282Z,48.40
2019-06-26T16:29:19.278Z,48.60
2019-06-26T16:30:19.263Z,49.01
2019-06-26T16:31:19.253Z,49.01
2019-06-26T16:32:19.221Z,49.11
2019-06-26T16:33:19.234Z,49.21
2019-06-26T16:34:19.220Z,49.11
2019-06-26T16:35:19.204Z,49.31
2019-06-26T16:36:19.202Z,49.73
2019-06-26T16:37:19.172Z,50.02
2019-06-26T16:38:19.174Z,50.42
2019-06-26T16:39:19.206Z,50.63
2019-06-26T16:40:19.224Z,50.73
2019-06-26T16:41:19.146Z,50.93
2019-06-26T16:42:19.124Z,51.12
2019-06-26T16:43:19.134Z,51.03
2019-06-26T16:44:19.175Z,51.35
2019-06-26T16:45:19.113Z,51.54
2019-06-26T16:46:19.084Z,51.64
2019-06-26T16:47:19.074Z,51.93
2019-06-26T16:48:19.063Z,52.03
2019-06-26T16:49:19.059Z,51.74
2019-06-26T16:50:19.066Z,51.93
2019-06-26T16:51:19.069Z,52.03
2019-06-26T16:52:19.039Z,51.86
2019-06-26T16:53:19.017Z,51.67
2019-06-26T16:54:19.010Z,51.76
2019-06-26T16:55:19.041Z,51.76
2019-06-26T16:56:19.018Z,51.97
2019-06-26T16:57:19.012Z,51.89
2019-06-26T16:58:18.959Z,51.99
2019-06-26T16:59:18.956Z,52.31
2019-06-26T17:00:18.952Z,52.50
2019-06-26T17:01:18.975Z,52.40
2019-06-26T17:02:18.920Z,52.83
2019-06-26T17:03:18.903Z,52.92
2019-06-26T17:04:18.930Z,52.83
2019-06-26T17:05:18.880Z,52.92
2019-06-26T17:06:18.901Z,53.12
2019-06-26T17:07:18.879Z,53.02
2019-06-26T17:08:18.865Z,53.12
2019-06-26T17:09:18.856Z,53.02
2019-06-26T17:10:18.845Z,53.22
2019-06-26T17:11:18.868Z,53.22
2019-06-26T17:12:18.811Z,52.90
2019-06-26T17:13:18.802Z,52.40
2019-06-26T17:14:18.794Z,51.92
2019-06-26T17:15:18.793Z,51.92
2019-06-26T17:16:18.784Z,51.72
2019-06-26T17:17:18.763Z,51.72
2019-06-26T17:18:18.767Z,52.01
2019-06-26T17:19:18.817Z,52.23
2019-06-26T17:20:18.758Z,52.63
2019-06-26T17:21:18.748Z,52.73
2019-06-26T17:22:18.719Z,52.14
2019-06-26T17:23:18.696Z,51.84
2019-06-26T17:24:18.699Z,51.97
2019-06-26T17:25:18.686Z,52.16
2019-06-26T17:26:18.710Z,52.26
2019-06-26T17:27:18.669Z,52.66
2019-06-26T17:28:18.653Z,52.95
2019-06-26T17:29:18.639Z,53.25
2019-06-26T17:30:18.641Z,53.05
2019-06-26T17:31:18.685Z,52.66
2019-06-26T17:32:18.642Z,52.66
2019-06-26T17:33:18.612Z,52.56
2019-06-26T17:34:18.590Z,52.87
2019-06-26T17:35:18.592Z,52.78
2019-06-26T17:36:18.569Z,52.39
2019-06-26T17:37:18.561Z,52.58
2019-06-26T17:38:18.551Z,52.58
2019-06-26T17:39:18.540Z,52.58
2019-06-26T17:40:18.553Z,52.87
2019-06-26T17:41:18.516Z,53.08
2019-06-26T17:42:18.504Z,52.87
2019-06-26T17:43:18.515Z,53.08
2019-06-26T17:44:18.472Z,53.17
2019-06-26T17:45:18.467Z,53.39
2019-06-26T17:46:18.453Z,53.50
2019-06-26T17:47:18.446Z,53.79
2019-06-26T17:48:18.579Z,53.81
2019-06-26T17:49:18.424Z,54.11
2019-06-26T17:50:18.417Z,54.21
2019-06-26T17:51:18.403Z,53.81
2019-06-26T17:52:18.394Z,53.81
2019-06-26T17:53:22.025Z,53.92
2019-06-26T17:54:18.378Z,53.81
2019-06-26T17:55:18.356Z,53.92
2019-06-26T17:56:18.379Z,54.14
2019-06-26T17:57:18.359Z,54.24
2019-06-26T17:58:18.340Z,54.53
2019-06-26T17:59:18.342Z,54.53
2019-06-26T18:00:18.320Z,54.66
2019-06-26T18:01:18.309Z,54.86
2019-06-26T18:02:18.287Z,54.96
2019-06-26T18:03:18.268Z,54.96
2019-06-26T18:04:18.278Z,55.15
2019-06-26T18:05:18.347Z,55.55
2019-06-26T18:06:18.256Z,55.65
2019-06-26T18:07:18.230Z,55.55
2019-06-26T18:08:18.234Z,55.75
2019-06-26T18:09:18.331Z,55.65
2019-06-26T18:10:18.199Z,55.55
2019-06-26T18:11:18.179Z,55.65
2019-06-26T18:12:18.184Z,55.55
2019-06-26T18:13:18.170Z,55.65
2019-06-26T18:14:18.214Z,55.75
2019-06-26T18:15:18.155Z,55.87
2019-06-26T18:16:18.170Z,55.87
2019-06-26T18:17:22.443Z,55.85
2019-06-26T18:18:18.225Z,55.85
2019-06-26T18:19:18.112Z,55.85
2019-06-26T18:20:18.100Z,55.94
2019-06-26T18:21:18.135Z,55.94
2019-06-26T18:22:18.085Z,55.75
2019-06-26T18:23:18.053Z,55.75
2019-06-26T18:24:18.062Z,55.75
2019-06-26T18:25:18.042Z,55.87
2019-06-26T18:26:18.048Z,55.77
2019-06-26T18:27:18.027Z,55.97
2019-06-26T18:28:18.004Z,56.07
2019-06-26T18:29:17.994Z,56.07
2019-06-26T18:30:18.005Z,56.30
2019-06-26T18:31:17.987Z,56.40
2019-06-26T18:32:17.976Z,56.30
2019-06-26T18:33:17.959Z,56.40
2019-06-26T18:34:17.956Z,56.59
2019-06-26T18:35:17.938Z,56.69
2019-06-26T18:36:17.926Z,56.49
2019-06-26T18:37:17.930Z,56.82
2019-06-26T18:38:17.921Z,56.92
2019-06-26T18:39:17.906Z,56.92
2019-06-26T18:40:17.909Z,57.14
2019-06-26T18:41:18.738Z,57.44
2019-06-26T18:42:17.847Z,57.54
2019-06-26T18:43:17.859Z,57.64
2019-06-26T18:44:17.828Z,57.54
2019-06-26T18:45:17.821Z,57.24
2019-06-26T18:46:17.821Z,57.14
2019-06-26T18:47:17.809Z,57.04
2019-06-26T18:48:17.802Z,56.95
2019-06-26T18:49:17.779Z,56.74
2019-06-26T18:50:17.770Z,56.65
2019-06-26T18:51:17.803Z,56.74
2019-06-26T18:52:17.747Z,57.54
2019-06-26T18:53:17.730Z,57.54
2019-06-26T18:54:17.721Z,57.74
2019-06-26T18:55:17.713Z,57.84
2019-06-26T18:56:17.701Z,56.85
2019-06-26T18:57:17.699Z,56.68
2019-06-26T18:58:17.704Z,56.77
2019-06-26T18:59:17.685Z,56.97
2019-06-26T19:00:17.670Z,57.17
2019-06-26T19:01:17.653Z,57.20
2019-06-26T19:02:17.648Z,57.10
2019-06-26T19:03:17.640Z,57.10
2019-06-26T19:04:17.613Z,56.90
2019-06-26T19:05:17.601Z,57.10
2019-06-26T19:06:17.616Z,56.90
2019-06-26T19:07:17.583Z,56.90
2019-06-26T19:08:17.576Z,56.90
2019-06-26T19:09:17.563Z,57.10
2019-06-26T19:10:17.606Z,57.42
2019-06-26T19:11:17.549Z,57.32
2019-06-26T19:12:17.537Z,57.72
2019-06-26T19:13:20.224Z,57.42
2019-06-26T19:14:17.504Z,57.72
2019-06-26T19:15:17.508Z,57.62
2019-06-26T19:16:17.505Z,57.85
2019-06-26T19:17:17.489Z,57.75
2019-06-26T19:18:17.483Z,57.95
2019-06-26T19:19:17.446Z,57.95
2019-06-26T19:20:17.448Z,57.75
2019-06-26T19:21:17.427Z,58.04
2019-06-26T19:22:17.450Z,57.75
2019-06-26T19:23:17.417Z,57.85
2019-06-26T19:24:17.397Z,58.17
2019-06-26T19:25:17.397Z,58.07
2019-06-26T19:26:17.368Z,58.07
2019-06-26T19:27:17.381Z,58.27
2019-06-26T19:28:17.349Z,58.17
2019-06-26T19:29:17.380Z,58.30
2019-06-26T19:30:17.343Z,58.10
2019-06-26T19:31:17.331Z,58.00
2019-06-26T19:32:17.336Z,58.50
2019-06-26T19:33:17.329Z,58.20
2019-06-26T19:34:17.289Z,58.30
2019-06-26T19:35:19.619Z,58.30
2019-06-26T19:36:17.303Z,58.30
2019-06-26T19:37:17.270Z,58.43
2019-06-26T19:38:17.287Z,58.43
2019-06-26T19:39:20.531Z,58.83
2019-06-26T19:40:17.230Z,58.65
2019-06-26T19:41:17.222Z,58.95
2019-06-26T19:42:17.214Z,59.05
2019-06-26T19:43:17.194Z,59.05
2019-06-26T19:44:17.196Z,58.86
2019-06-26T19:45:17.229Z,58.86
2019-06-26T19:46:17.486Z,59.15
2019-06-26T19:47:17.152Z,58.95
2019-06-26T19:48:17.158Z,58.98
2019-06-26T19:49:17.135Z,59.08
2019-06-26T19:50:17.137Z,59.08
2019-06-26T19:51:17.134Z,59.08
2019-06-26T19:52:17.095Z,59.48
2019-06-26T19:53:17.098Z,59.08
2019-06-26T19:54:26.719Z,59.08
2019-06-26T19:55:18.125Z,59.08
2019-06-26T19:56:20.101Z,59.08
2019-06-26T19:57:17.036Z,59.08
2019-06-26T19:58:21.318Z,59.41
2019-06-26T19:59:17.037Z,59.51
2019-06-26T20:00:17.019Z,59.61
2019-06-26T20:01:16.997Z,59.81
2019-06-26T20:02:17.000Z,59.81
2019-06-26T20:03:16.989Z,60.33
2019-06-26T20:04:16.966Z,60.53
2019-06-26T20:05:16.957Z,60.13
2019-06-26T20:06:16.936Z,60.43
2019-06-26T20:07:16.960Z,60.33
2019-06-26T20:08:16.940Z,60.43
2019-06-26T20:09:16.907Z,60.43
2019-06-26T20:10:16.917Z,60.83
2019-06-26T20:11:16.900Z,60.93
2019-06-26T20:12:16.876Z,60.86
2019-06-26T20:13:16.877Z,60.86
2019-06-26T20:14:16.871Z,61.06
2019-06-26T20:15:16.871Z,60.96
2019-06-26T20:16:16.859Z,61.06
2019-06-26T20:17:16.826Z,61.16
2019-06-26T20:18:16.822Z,61.06
2019-06-26T20:19:16.810Z,61.06
2019-06-26T20:20:16.809Z,60.86
2019-06-26T20:21:16.799Z,61.16
2019-06-26T20:22:16.780Z,61.29
2019-06-26T20:23:16.771Z,61.49
2019-06-26T20:24:16.779Z,61.69
2019-06-26T20:25:16.753Z,61.88
2019-06-26T20:26:16.720Z,62.29
2019-06-26T20:27:16.751Z,62.29
2019-06-26T20:28:16.701Z,61.88
2019-06-26T20:29:16.705Z,62.08
2019-06-26T20:30:16.704Z,61.99
2019-06-26T20:31:16.729Z,61.99
2019-06-26T20:32:16.674Z,61.88
2019-06-26T20:33:16.662Z,61.99
2019-06-26T20:34:16.666Z,61.88
2019-06-26T20:35:16.632Z,61.99
2019-06-26T20:36:16.625Z,62.01
2019-06-26T20:37:16.685Z,62.21
2019-06-26T20:38:16.605Z,62.31
2019-06-26T20:39:23.633Z,62.41
2019-06-26T20:40:16.563Z,62.54
2019-06-26T20:41:16.564Z,62.74
2019-06-26T20:42:16.560Z,62.84
2019-06-26T20:43:16.544Z,62.94
2019-06-26T20:44:16.524Z,62.94
2019-06-26T20:45:16.524Z,62.94
2019-06-26T20:46:16.519Z,62.84
2019-06-26T20:47:16.495Z,62.84
2019-06-26T20:48:16.494Z,63.14
2019-06-26T20:49:16.478Z,63.04
2019-06-26T20:50:16.465Z,63.04
2019-06-26T20:51:16.455Z,63.27
2019-06-26T20:52:16.449Z,63.27
2019-06-26T20:53:16.425Z,63.47
2019-06-26T20:54:16.426Z,63.80
2019-06-26T20:55:16.414Z,64.00
2019-06-26T20:56:16.405Z,63.80
2019-06-26T20:57:16.393Z,63.90
2019-06-26T20:58:16.387Z,63.80
2019-06-26T20:59:16.370Z,63.90
2019-06-26T21:00:16.367Z,63.90
2019-06-26T21:01:16.352Z,63.90
2019-06-26T21:02:16.342Z,64.00
2019-06-26T21:03:16.317Z,64.10
2019-06-26T21:04:16.311Z,64.20
2019-06-26T21:05:16.308Z,64.43
2019-06-26T21:06:16.330Z,64.33
2019-06-26T21:07:16.282Z,64.40
2019-06-26T21:08:16.270Z,64.23
2019-06-26T21:09:16.279Z,64.43
2019-06-26T21:10:16.247Z,64.53
2019-06-26T21:11:16.230Z,64.63
2019-06-26T21:12:16.240Z,64.63
2019-06-26T21:13:16.223Z,64.73
2019-06-26T21:14:16.200Z,64.73
2019-06-26T21:15:16.191Z,64.63
2019-06-26T21:16:16.183Z,64.73
2019-06-26T21:17:16.181Z,64.83
2019-06-26T21:18:16.171Z,64.83
2019-06-26T21:19:16.154Z,64.86
2019-06-26T21:20:16.130Z,64.96
2019-06-26T21:21:16.135Z,64.96
2019-06-26T21:22:16.154Z,64.96
2019-06-26T21:23:18.687Z,65.16
2019-06-26T21:24:16.106Z,65.26
2019-06-26T21:25:18.835Z,65.36
2019-06-26T21:26:16.095Z,65.26
2019-06-26T21:27:16.062Z,65.49
2019-06-26T21:28:16.054Z,65.79
2019-06-26T21:29:16.060Z,65.99
2019-06-26T21:30:16.033Z,66.13
2019-06-26T21:31:16.024Z,66.42
2019-06-26T21:32:16.015Z,66.52
2019-06-26T21:33:16.017Z,66.63
2019-06-26T21:34:15.996Z,66.63
2019-06-26T21:35:15.987Z,66.63
2019-06-26T21:36:15.994Z,66.82
2019-06-26T21:37:15.953Z,67.02
2019-06-26T21:38:15.967Z,67.25
2019-06-26T21:39:15.954Z,67.36
2019-06-26T21:40:15.924Z,67.36
2019-06-26T21:41:15.933Z,67.46
2019-06-26T21:42:15.927Z,67.55
2019-06-26T21:43:15.954Z,67.69
2019-06-26T21:44:15.884Z,67.59
2019-06-26T21:45:19.159Z,67.69
2019-06-26T21:46:15.855Z,67.59
2019-06-26T21:47:15.846Z,67.59
2019-06-26T21:48:15.855Z,67.39
2019-06-26T21:49:15.853Z,67.62
2019-06-26T21:50:15.817Z,67.72
2019-06-26T21:51:15.814Z,67.72
2019-06-26T21:52:15.820Z,67.82
2019-06-26T21:53:15.809Z,67.96
2019-06-26T21:54:15.776Z,67.96
2019-06-26T21:55:15.758Z,67.85
2019-06-26T21:56:15.747Z,67.85
2019-06-26T21:57:15.737Z,67.85
2019-06-26T21:58:15.760Z,67.96
2019-06-26T21:59:15.737Z,67.96
2019-06-26T22:00:15.800Z,67.88
2019-06-26T22:01:15.698Z,67.88
2019-06-26T22:02:15.688Z,68.08
2019-06-26T22:03:15.668Z,68.32
2019-06-26T22:04:15.679Z,68.52
2019-06-26T22:05:15.672Z,68.72
2019-06-26T22:06:15.654Z,68.72
2019-06-26T22:07:15.648Z,68.72
2019-06-26T22:08:15.632Z,68.72
2019-06-26T22:09:15.649Z,68.72
2019-06-26T22:10:15.601Z,68.82
2019-06-26T22:11:15.601Z,68.62
2019-06-26T22:12:15.596Z,68.92
2019-06-26T22:13:15.562Z,68.92
2019-06-26T22:14:15.565Z,68.92
2019-06-26T22:15:15.563Z,68.92
2019-06-26T22:16:15.540Z,69.06
2019-06-26T22:17:15.530Z,69.15
2019-06-26T22:18:15.514Z,69.06
2019-06-26T22:19:15.512Z,69.06
2019-06-26T22:20:15.510Z,68.95
2019-06-26T22:21:15.481Z,68.85
2019-06-26T22:22:15.471Z,68.85
2019-06-26T22:23:15.460Z,68.85
2019-06-26T22:24:15.441Z,68.85
2019-06-26T22:25:15.484Z,68.95
2019-06-26T22:26:15.422Z,69.06
2019-06-26T22:27:15.412Z,69.06
2019-06-26T22:28:15.441Z,69.39
2019-06-26T22:29:15.403Z,69.69
2019-06-26T22:30:15.442Z,69.89
2019-06-26T22:31:15.372Z,69.92
2019-06-26T22:32:15.353Z,70.12
2019-06-26T22:33:15.364Z,70.12
2019-06-26T22:34:15.342Z,70.12
2019-06-26T22:35:15.343Z,70.23
2019-06-26T22:36:15.314Z,70.03
2019-06-26T22:37:15.312Z,70.23
2019-06-26T22:38:15.316Z,70.32
2019-06-26T22:39:15.274Z,70.43
2019-06-26T22:40:15.286Z,70.32
2019-06-26T22:41:15.276Z,70.43
2019-06-26T22:42:15.243Z,70.43
2019-06-26T22:43:15.250Z,70.43
2019-06-26T22:44:15.236Z,70.32
2019-06-26T22:45:15.214Z,70.23
2019-06-26T22:46:15.193Z,70.12
2019-06-26T22:47:15.203Z,70.26
2019-06-26T22:48:15.199Z,70.56
2019-06-26T22:49:15.182Z,70.76
2019-06-26T22:50:15.167Z,70.76
2019-06-26T22:51:15.177Z,70.56
2019-06-26T22:52:15.145Z,70.66
2019-06-26T22:53:15.130Z,70.56
2019-06-26T22:54:15.120Z,70.56
2019-06-26T22:55:15.129Z,70.56
2019-06-26T22:56:15.095Z,70.56
2019-06-26T22:57:15.114Z,70.76
2019-06-26T22:58:15.082Z,71.00
2019-06-26T22:59:15.069Z,71.40
2019-06-26T23:00:15.056Z,71.50
2019-06-26T23:01:15.069Z,71.60
2019-06-26T23:02:15.052Z,71.73
2019-06-26T23:03:15.036Z,72.03
2019-06-26T23:04:15.029Z,72.24
2019-06-26T23:05:15.009Z,72.24
2019-06-26T23:06:14.989Z,72.24
2019-06-26T23:07:14.982Z,72.03
2019-06-26T23:08:14.978Z,72.03
2019-06-26T23:09:14.972Z,72.03
2019-06-26T23:10:15.000Z,72.14
2019-06-26T23:11:14.948Z,72.17
2019-06-26T23:12:14.960Z,72.37
2019-06-26T23:13:14.921Z,72.37
2019-06-26T23:14:14.888Z,72.37
2019-06-26T23:15:14.893Z,72.57
2019-06-26T23:16:14.878Z,72.71
2019-06-26T23:17:14.871Z,72.81
2019-06-26T23:18:14.890Z,72.81
2019-06-26T23:19:15.116Z,72.91
2019-06-26T23:20:14.829Z,72.91
2019-06-26T23:21:14.832Z,72.81
2019-06-26T23:22:14.809Z,72.71
2019-06-26T23:23:14.812Z,72.61
2019-06-26T23:24:14.821Z,72.51
2019-06-26T23:25:14.815Z,72.51
2019-06-26T23:26:24.044Z,72.31
2019-06-26T23:27:15.771Z,72.31
2019-06-26T23:28:14.750Z,72.31
2019-06-26T23:29:14.730Z,72.51
2019-06-26T23:30:14.734Z,72.54
2019-06-26T23:31:14.720Z,72.54
2019-06-26T23:32:14.700Z,72.44
2019-06-26T23:33:14.703Z,72.34
2019-06-26T23:34:14.694Z,72.54
2019-06-26T23:35:14.681Z,72.64
2019-06-26T23:36:14.660Z,72.64
2019-06-26T23:37:14.644Z,72.94
2019-06-26T23:38:14.641Z,73.05
2019-06-26T23:39:14.654Z,73.05
2019-06-26T23:40:14.621Z,73.25
2019-06-26T23:41:17.888Z,73.14
2019-06-26T23:42:14.597Z,73.05
2019-06-26T23:43:14.585Z,72.94
2019-06-26T23:44:14.586Z,72.98
2019-06-26T23:45:14.562Z,72.85
2019-06-26T23:46:14.554Z,72.85
2019-06-26T23:47:14.554Z,72.94
2019-06-26T23:48:14.545Z,72.94
2019-06-26T23:49:14.513Z,72.88
2019-06-26T23:50:14.502Z,72.98
2019-06-26T23:51:14.502Z,72.88
2019-06-26T23:52:14.484Z,72.88
2019-06-26T23:53:14.473Z,72.85
2019-06-26T23:54:14.452Z,72.98
2019-06-26T23:55:14.456Z,72.98
2019-06-26T23:56:14.441Z,72.98
2019-06-26T23:57:14.435Z,72.98
2019-06-26T23:58:14.413Z,72.88
2019-06-26T23:59:14.407Z,72.78
